Time;durP1;ratioP1;P1;durP2;ratioP2;P2;SDS_P1;SDS_P2;PMS_P1;PMS_P2;Temp;Humidity;BMP_temperature;BMP_pressure;BME280_temperature;BME280_humidity;BME280_pressure;Samples;Min_cycle;Max_cycle;Signal;HPM_P1;HPM_P2
2022/05/08 00:00:24;;;;;;;6.63;5.70;;;;;;;17.09;51.87;93831.47;5027985;28;20100;-86
2022/05/08 00:02:52;;;;;;;6.63;5.47;;;;;;;17.10;52.10;93819.28;5027546;28;20033;-87
2022/05/08 00:05:18;;;;;;;6.20;5.60;;;;;;;17.09;52.05;93820.56;5011446;28;20041;-86
2022/05/08 00:07:43;;;;;;;7.13;5.53;;;;;;;17.09;51.82;93828.75;5011967;28;20034;-87
2022/05/08 00:10:09;;;;;;;6.97;6.28;;;;;;;17.10;51.80;93826.75;4994584;28;20119;-87
2022/05/08 00:12:35;;;;;;;7.00;5.82;;;;;;;17.08;51.79;93821.03;5011009;28;20120;-86
2022/05/08 00:15:01;;;;;;;7.13;6.05;;;;;;;17.10;51.98;93819.28;5027997;28;20033;-86
2022/05/08 00:17:29;;;;;;;7.43;6.28;;;;;;;17.08;51.98;93813.59;5010578;28;20103;-86
2022/05/08 00:19:55;;;;;;;6.40;5.35;;;;;;;17.09;52.04;93817.81;5012388;28;20044;-86
2022/05/08 00:22:21;;;;;;;6.45;5.60;;;;;;;17.08;51.91;93815.56;5010765;28;20159;-87
2022/05/08 00:24:46;;;;;;;6.90;5.93;;;;;;;17.07;51.59;93816.81;5011362;28;20037;-86
2022/05/08 00:27:12;;;;;;;8.35;6.05;;;;;;;17.08;51.85;93813.59;4994515;28;20496;-86
2022/05/08 00:29:37;;;;;;;7.72;6.93;;;;;;;17.09;52.18;93811.59;5027398;28;20045;-87
2022/05/08 00:32:03;;;;;;;7.93;6.22;;;;;;;17.07;51.97;93803.91;5010653;28;20048;-86
2022/05/08 00:34:28;;;;;;;6.70;5.85;;;;;;;17.08;52.06;93808.13;5007599;28;20034;-86
2022/05/08 00:36:54;;;;;;;8.25;6.63;;;;;;;17.08;52.30;93802.66;5019114;28;20033;-86
2022/05/08 00:39:20;;;;;;;6.63;5.80;;;;;;;17.08;51.92;93796.47;5027691;28;20064;-87
2022/05/08 00:41:46;;;;;;;6.30;5.70;;;;;;;17.08;52.05;93801.91;5026988;28;20041;-86
2022/05/08 00:44:11;;;;;;;7.20;5.93;;;;;;;17.06;51.89;93794.22;5026128;28;20044;-86
2022/05/08 00:46:37;;;;;;;6.75;5.90;;;;;;;17.07;52.05;93801.16;5046680;28;20040;-86
2022/05/08 00:49:02;;;;;;;6.88;5.88;;;;;;;17.07;51.85;93801.16;4992167;28;20048;-85
2022/05/08 00:51:28;;;;;;;6.78;6.07;;;;;;;17.09;51.47;93792.50;4976942;28;20076;-86
2022/05/08 00:53:56;;;;;;;6.63;5.85;;;;;;;17.07;51.97;93794.97;4992555;28;20042;-86
2022/05/08 00:56:21;;;;;;;6.70;5.95;;;;;;;17.05;52.27;93790.00;4976198;28;20127;-86
2022/05/08 00:58:48;;;;;;;7.03;5.70;;;;;;;17.07;52.16;93794.97;4966634;28;20060;-86
2022/05/08 01:01:13;;;;;;;7.32;6.03;;;;;;;17.08;51.65;93788.25;4956443;28;20042;-85
2022/05/08 01:03:40;;;;;;;6.05;5.45;;;;;;;17.05;51.97;93800.91;4956741;28;20049;-86
2022/05/08 01:06:08;;;;;;;6.68;5.95;;;;;;;17.06;51.60;93793.47;4972528;28;20537;-86
2022/05/08 01:08:34;;;;;;;7.07;6.35;;;;;;;17.06;52.28;93801.66;4973578;28;20376;-86
2022/05/08 01:11:04;;;;;;;6.88;6.00;;;;;;;17.07;51.93;93801.16;4973446;28;20432;-86
2022/05/08 01:13:29;;;;;;;6.30;5.40;;;;;;;17.07;51.86;93794.97;4972773;28;20065;-86
2022/05/08 01:15:55;;;;;;;7.20;5.68;;;;;;;17.05;52.01;93795.44;4989540;28;20224;-86
2022/05/08 01:18:20;;;;;;;8.00;6.00;;;;;;;17.05;52.14;93790.00;4953313;28;20049;-86
2022/05/08 01:20:49;;;;;;;7.65;6.55;;;;;;;17.05;51.97;93792.72;4999174;28;20025;-85
2022/05/08 01:23:19;;;;;;;6.78;6.00;;;;;;;17.07;51.86;93784.78;4994560;28;20034;-86
2022/05/08 01:25:52;;;;;;;7.45;6.75;;;;;;;17.04;52.26;93780.31;5011171;28;20074;-87
2022/05/08 01:28:18;;;;;;;6.15;5.55;;;;;;;17.05;52.18;93795.44;4993930;28;20037;-85
2022/05/08 01:30:44;;;;;;;6.28;5.45;;;;;;;17.06;52.39;93793.47;4994313;28;20045;-86
2022/05/08 01:33:10;;;;;;;7.07;6.15;;;;;;;17.06;51.82;93799.69;5009451;28;20034;-86
2022/05/08 01:35:35;;;;;;;6.47;5.68;;;;;;;17.06;52.31;93788.00;5006698;28;20040;-86
2022/05/08 01:38:02;;;;;;;6.72;5.40;;;;;;;17.06;52.28;93790.75;5010245;28;20064;-86
2022/05/08 01:40:28;;;;;;;7.00;6.10;;;;;;;17.07;52.28;93786.78;5010028;28;20033;-86
2022/05/08 01:42:53;;;;;;;6.75;5.95;;;;;;;17.06;51.97;93796.19;5026027;28;20064;-86
2022/05/08 01:45:21;;;;;;;8.68;6.32;;;;;;;17.04;51.94;93787.75;5026137;28;20041;-85
2022/05/08 01:50:31;;;;;;;8.32;6.82;;;;;;;17.03;51.81;93781.53;5032381;28;20071;-85
2022/05/08 01:52:56;;;;;;;8.07;6.20;;;;;;;17.05;51.77;93795.44;5029530;28;20408;-86
2022/05/08 01:55:22;;;;;;;7.70;6.07;;;;;;;17.04;51.97;93793.22;5013984;28;20098;-86
2022/05/08 01:57:47;;;;;;;6.75;5.68;;;;;;;17.03;51.98;93794.44;5017232;28;20029;-86
2022/05/08 02:00:13;;;;;;;8.05;5.78;;;;;;;17.02;51.82;93792.97;5033131;28;20032;-86
2022/05/08 02:02:38;;;;;;;6.82;5.88;;;;;;;17.03;52.29;93792.47;5015683;28;20381;-86
2022/05/08 02:05:04;;;;;;;6.70;5.80;;;;;;;17.05;51.90;93800.16;5033390;28;20037;-87
2022/05/08 02:07:29;;;;;;;9.30;5.85;;;;;;;17.05;51.73;93797.44;5050375;28;20041;-87
2022/05/08 02:09:58;;;;;;;6.80;5.50;;;;;;;17.04;51.88;93795.94;5033356;28;20044;-85
2022/05/08 02:12:23;;;;;;;6.80;6.10;;;;;;;17.05;52.08;93797.44;5012570;28;20037;-86
2022/05/08 02:14:49;;;;;;;6.15;5.20;;;;;;;17.03;52.29;93789.72;5030026;28;20034;-86
2022/05/08 02:17:14;;;;;;;6.70;5.63;;;;;;;17.05;52.10;93795.44;5012730;28;20049;-86
2022/05/08 02:19:40;;;;;;;5.88;5.28;;;;;;;17.04;52.34;93793.97;5030455;28;20026;-86
2022/05/08 02:22:05;;;;;;;6.60;5.80;;;;;;;17.04;51.98;93795.94;5029366;28;20072;-86
2022/05/08 02:24:31;;;;;;;6.97;6.28;;;;;;;17.04;51.55;93802.16;5032460;28;20454;-86
2022/05/08 02:26:56;;;;;;;6.40;5.75;;;;;;;17.03;51.92;93797.94;5032940;28;20407;-85
2022/05/08 02:29:22;;;;;;;7.57;6.20;;;;;;;17.03;52.08;93792.47;5016728;28;20068;-86
2022/05/08 02:31:47;;;;;;;8.52;6.95;;;;;;;17.02;52.02;93792.97;5016483;28;20274;-87
2022/05/08 02:34:13;;;;;;;7.10;5.90;;;;;;;17.04;51.81;93796.69;5049542;28;20121;-85
2022/05/08 02:36:38;;;;;;;7.35;6.07;;;;;;;17.03;51.88;93794.44;5023300;28;20525;-86
2022/05/08 02:39:03;;;;;;;7.85;6.47;;;;;;;17.02;52.29;93792.97;5012807;28;20041;-86
2022/05/08 02:41:29;;;;;;;7.03;5.93;;;;;;;17.03;52.22;93794.44;5013399;28;20048;-85
2022/05/08 02:43:55;;;;;;;7.13;5.55;;;;;;;17.02;52.10;93792.97;5013121;28;20038;-86
2022/05/08 02:46:20;;;;;;;6.40;5.53;;;;;;;17.02;51.84;93792.97;5012418;28;20042;-86
2022/05/08 02:48:46;;;;;;;6.75;6.05;;;;;;;17.00;52.33;93790.72;5029253;28;20029;-85
2022/05/08 02:51:11;;;;;;;7.60;6.38;;;;;;;17.01;52.21;93788.72;5012602;28;20048;-86
2022/05/08 02:53:36;;;;;;;6.85;6.05;;;;;;;17.01;52.07;93789.47;5012824;28;20040;-85
2022/05/08 02:58:47;;;;;;;8.00;6.28;;;;;;;17.03;52.30;93799.91;5032326;28;20040;-85
2022/05/08 03:01:12;;;;;;;7.43;6.10;;;;;;;17.00;51.90;93795.44;5015506;28;20045;-85
2022/05/08 03:03:37;;;;;;;7.57;6.18;;;;;;;17.00;52.28;93798.16;5032686;28;20037;-86
2022/05/08 03:06:03;;;;;;;8.57;6.45;;;;;;;17.02;52.15;93795.69;5031371;28;20036;-85
2022/05/08 03:08:29;;;;;;;7.10;6.38;;;;;;;17.01;52.21;93799.66;5016591;28;20043;-85
2022/05/08 03:13:40;;;;;;;6.20;5.57;;;;;;;17.01;51.97;93805.13;5048945;28;20040;-86
2022/05/08 03:16:06;;;;;;;6.18;5.22;;;;;;;17.00;52.21;93798.16;5015119;28;20578;-86
2022/05/08 03:18:32;;;;;;;6.25;5.00;;;;;;;17.00;51.87;93800.88;5032426;28;20045;-86
2022/05/08 03:20:58;;;;;;;5.63;5.03;;;;;;;17.00;52.09;93807.09;5029958;28;20059;-86
2022/05/08 03:23:23;;;;;;;7.18;5.90;;;;;;;17.01;52.20;93802.38;5011179;28;20515;-86
2022/05/08 03:25:49;;;;;;;6.25;5.65;;;;;;;16.99;52.08;93800.16;5028745;28;20052;-85
2022/05/08 03:28:15;;;;;;;7.25;6.18;;;;;;;16.99;52.15;93813.81;5011831;28;20044;-86
2022/05/08 03:30:41;;;;;;;6.50;5.30;;;;;;;16.98;51.99;93798.66;5028520;28;20046;-86
2022/05/08 03:33:08;;;;;;;6.50;5.57;;;;;;;17.00;52.07;93800.88;5028073;28;20077;-85
2022/05/08 03:35:34;;;;;;;6.47;5.43;;;;;;;17.00;52.17;93806.34;5035954;28;20104;-86
2022/05/08 03:37:59;;;;;;;6.82;6.13;;;;;;;17.01;52.19;93807.84;5027869;28;20400;-86
2022/05/08 03:40:28;;;;;;;5.93;4.95;;;;;;;17.00;52.11;93806.34;5027963;28;20048;-87
2022/05/08 03:42:54;;;;;;;6.18;5.57;;;;;;;16.98;52.22;93804.13;5044221;28;20362;-86
2022/05/08 03:45:20;;;;;;;6.50;5.80;;;;;;;16.99;52.10;93805.59;5011847;28;20042;-88
2022/05/08 03:47:45;;;;;;;7.38;5.55;;;;;;;16.99;52.07;93808.34;5028269;28;20045;-86
2022/05/08 03:50:11;;;;;;;6.82;5.38;;;;;;;17.01;51.76;93803.13;4995036;28;20041;-86
2022/05/08 03:52:36;;;;;;;6.38;5.78;;;;;;;17.02;52.22;93809.34;4995484;28;20087;-86
2022/05/08 03:55:02;;;;;;;6.47;5.57;;;;;;;17.01;52.30;93807.84;5011604;28;20041;-86
2022/05/08 03:57:28;;;;;;;6.47;5.78;;;;;;;17.00;52.11;93815.28;5011443;28;20067;-86
2022/05/08 03:59:53;;;;;;;6.45;5.68;;;;;;;16.99;52.12;93813.06;5020814;28;20041;-89
2022/05/08 04:02:18;;;;;;;6.00;5.40;;;;;;;17.00;51.87;93818.03;5030963;28;20048;-85
2022/05/08 04:04:44;;;;;;;6.93;6.18;;;;;;;17.00;52.44;93811.81;5014733;28;20041;-86
2022/05/08 04:07:09;;;;;;;7.13;6.13;;;;;;;16.99;51.91;93813.06;5013965;28;20044;-86
2022/05/08 04:09:35;;;;;;;6.32;5.45;;;;;;;16.99;52.43;93819.25;5015345;28;20338;-86
2022/05/08 04:12:00;;;;;;;7.40;5.60;;;;;;;16.98;52.28;93819.75;5014016;28;20037;-85
2022/05/08 04:14:26;;;;;;;6.63;5.60;;;;;;;16.99;52.12;93819.25;5048117;28;20048;-85
2022/05/08 04:16:51;;;;;;;6.07;5.35;;;;;;;16.99;52.11;93822.00;5030851;28;20037;-86
2022/05/08 04:19:16;;;;;;;6.68;5.60;;;;;;;16.99;52.16;93823.97;5030134;28;20408;-85
2022/05/08 04:21:42;;;;;;;6.68;5.20;;;;;;;17.00;52.41;93814.53;5023153;28;20033;-88
2022/05/08 04:24:18;;;;;;;6.25;5.00;;;;;;;16.98;52.26;93819.75;5010534;28;20565;-86
2022/05/08 04:26:44;;;;;;;6.53;5.57;;;;;;;16.99;51.95;93821.25;4996961;28;20511;-86
2022/05/08 04:29:09;;;;;;;7.32;5.68;;;;;;;17.00;51.53;93822.75;5011204;28;20033;-87
2022/05/08 04:31:34;;;;;;;6.10;5.25;;;;;;;16.98;52.15;93817.78;5011278;28;20033;-86
2022/05/08 04:34:01;;;;;;;7.57;5.20;;;;;;;16.99;51.90;93827.47;5011076;28;20237;-87
2022/05/08 04:36:26;;;;;;;6.07;5.38;;;;;;;16.99;52.25;93824.72;5027309;28;20033;-86
2022/05/08 04:38:52;;;;;;;6.03;5.43;;;;;;;16.99;52.17;93824.72;5010595;28;20117;-86
2022/05/08 04:41:18;;;;;;;6.70;5.55;;;;;;;16.98;52.01;93823.22;5010444;28;20038;-86
2022/05/08 04:43:43;;;;;;;7.72;5.45;;;;;;;16.98;52.02;93831.41;5011518;28;20033;-86
2022/05/08 04:46:10;;;;;;;6.07;5.32;;;;;;;16.98;51.91;93831.41;5009922;28;20041;-86
2022/05/08 04:48:36;;;;;;;6.60;5.90;;;;;;;17.00;52.16;93823.50;5010965;28;20033;-86
2022/05/08 04:51:01;;;;;;;7.63;5.88;;;;;;;16.99;52.29;93827.47;5010649;28;20034;-86
2022/05/08 04:53:27;;;;;;;6.82;5.90;;;;;;;16.98;52.28;93831.41;5026686;28;20042;-86
2022/05/08 04:55:52;;;;;;;6.55;5.65;;;;;;;16.99;52.09;93834.91;5010625;28;20038;-86
2022/05/08 04:58:18;;;;;;;6.53;5.82;;;;;;;16.98;52.05;93836.13;5010485;28;20034;-86
2022/05/08 05:00:43;;;;;;;6.50;5.50;;;;;;;16.98;52.24;93847.06;5006832;28;20090;-85
2022/05/08 05:03:09;;;;;;;6.40;5.78;;;;;;;16.96;52.38;93847.56;5046270;28;20033;-86
2022/05/08 05:05:35;;;;;;;5.65;5.10;;;;;;;16.99;52.02;93845.81;5030378;28;20098;-87
2022/05/08 05:08:01;;;;;;;5.82;5.18;;;;;;;16.96;51.94;93842.09;5030410;28;20037;-86
2022/05/08 05:10:26;;;;;;;6.10;5.45;;;;;;;16.97;51.88;93854.50;5045576;28;20470;-85
2022/05/08 05:12:52;;;;;;;6.20;5.20;;;;;;;16.96;51.91;93857.72;5007381;28;20450;-86
2022/05/08 05:15:18;;;;;;;6.97;5.22;;;;;;;16.98;51.89;93850.53;5029468;28;20033;-86
2022/05/08 05:17:43;;;;;;;6.75;5.40;;;;;;;16.97;52.16;93857.25;5030490;28;20036;-86
2022/05/08 05:20:09;;;;;;;6.80;5.60;;;;;;;16.98;51.84;93855.25;5030068;28;20063;-86
2022/05/08 05:22:35;;;;;;;5.57;5.03;;;;;;;16.97;51.99;93859.22;4998069;28;20074;-88
2022/05/08 05:25:02;;;;;;;5.82;5.22;;;;;;;16.98;52.37;93861.47;5010077;28;20041;-86
2022/05/08 05:27:27;;;;;;;5.93;4.72;;;;;;;16.98;52.28;93856.00;4993788;28;20043;-86
2022/05/08 05:29:53;;;;;;;5.72;5.13;;;;;;;16.96;51.93;93858.47;5010094;28;20033;-85
2022/05/08 05:32:18;;;;;;;6.00;5.40;;;;;;;16.98;51.97;93856.00;5009691;28;20042;-86
2022/05/08 05:34:44;;;;;;;5.32;4.68;;;;;;;16.97;51.96;93859.22;4994126;28;20163;-86
2022/05/08 05:37:09;;;;;;;5.50;4.93;;;;;;;16.97;51.93;93849.03;5019804;28;20531;-85
2022/05/08 05:39:35;;;;;;;5.78;5.10;;;;;;;16.98;51.89;93861.47;5009994;28;20496;-85
2022/05/08 05:42:00;;;;;;;6.47;5.20;;;;;;;17.00;52.07;93869.16;5026478;28;20505;-86
2022/05/08 05:44:26;;;;;;;5.63;5.03;;;;;;;16.98;52.04;93863.44;5026514;28;20508;-85
2022/05/08 05:49:38;;;;;;;5.32;4.80;;;;;;;16.98;52.22;93863.44;5025815;28;20052;-86
2022/05/08 05:52:05;;;;;;;5.72;5.13;;;;;;;16.97;51.66;93862.69;5009234;28;20407;-86
2022/05/08 05:54:31;;;;;;;5.75;4.30;;;;;;;16.98;52.16;93868.91;4994154;28;20041;-86
2022/05/08 05:56:56;;;;;;;5.95;5.32;;;;;;;16.99;52.04;93873.13;5026166;28;20033;-86
2022/05/08 05:59:22;;;;;;;6.43;5.30;;;;;;;16.99;52.10;93873.13;4993020;28;20128;-86
2022/05/08 06:01:48;;;;;;;5.45;4.90;;;;;;;16.97;52.20;93872.88;4992366;28;20033;-85
2022/05/08 06:04:13;;;;;;;6.20;5.43;;;;;;;16.98;52.09;93871.63;5009424;28;20052;-87
2022/05/08 06:06:39;;;;;;;5.80;5.20;;;;;;;16.98;52.21;93879.84;5010007;28;20492;-86
2022/05/08 06:09:04;;;;;;;5.90;5.07;;;;;;;16.98;51.81;93879.84;5025670;28;20053;-85
2022/05/08 06:11:30;;;;;;;5.43;4.68;;;;;;;16.99;51.81;93875.88;4993676;28;20037;-85
2022/05/08 06:13:55;;;;;;;5.55;4.95;;;;;;;16.98;52.03;93890.75;5026016;28;20381;-86
2022/05/08 06:16:21;;;;;;;5.55;5.05;;;;;;;17.00;52.24;93886.31;5025524;28;20054;-88
2022/05/08 06:18:46;;;;;;;5.75;4.95;;;;;;;16.98;51.48;93885.28;5025613;28;20033;-85
2022/05/08 06:21:11;;;;;;;5.40;4.82;;;;;;;16.96;52.20;93883.06;5005393;28;20034;-85
2022/05/08 06:23:37;;;;;;;5.63;4.90;;;;;;;16.97;52.24;93895.47;5022366;28;20044;-86
2022/05/08 06:26:03;;;;;;;6.78;4.82;;;;;;;16.95;51.91;93889.75;5045174;28;20091;-85
2022/05/08 06:28:29;;;;;;;5.72;4.68;;;;;;;16.99;52.14;93900.44;5029303;28;20064;-85
2022/05/08 06:30:54;;;;;;;5.53;4.90;;;;;;;16.97;52.39;93898.22;5012789;28;20539;-85
2022/05/08 06:33:20;;;;;;;5.97;4.85;;;;;;;16.98;51.94;93896.97;5028641;28;20033;-87
2022/05/08 06:35:45;;;;;;;6.05;5.32;;;;;;;16.98;51.72;93890.75;5043084;28;20083;-85
2022/05/08 06:38:11;;;;;;;5.60;4.85;;;;;;;16.98;52.23;93902.44;5009000;28;20045;-86
2022/05/08 06:40:37;;;;;;;5.72;4.65;;;;;;;16.98;51.79;93902.44;5009924;28;20477;-85
2022/05/08 06:43:03;;;;;;;5.53;4.88;;;;;;;16.99;51.74;93905.91;5029268;28;20068;-87
2022/05/08 06:45:29;;;;;;;5.50;4.38;;;;;;;16.97;51.92;93911.09;5013205;28;20060;-86
2022/05/08 06:47:54;;;;;;;5.55;4.65;;;;;;;16.98;52.35;93910.63;5029777;28;20048;-85
2022/05/08 06:50:20;;;;;;;5.57;4.88;;;;;;;16.99;52.15;93903.19;5015487;28;20069;-87
2022/05/08 06:52:45;;;;;;;5.97;5.18;;;;;;;16.97;51.53;93905.66;5032506;28;20478;-86
2022/05/08 06:55:11;;;;;;;5.65;4.32;;;;;;;17.01;51.68;93908.91;5032220;28;20045;-86
2022/05/08 06:57:36;;;;;;;5.90;4.70;;;;;;;16.99;51.91;93908.63;5032736;28;20377;-85
2022/05/08 07:02:47;;;;;;;5.95;4.75;;;;;;;16.98;52.02;93907.16;5034302;28;20040;-85
2022/05/08 07:05:13;;;;;;;6.72;4.93;;;;;;;16.98;51.72;93907.16;5016016;28;20040;-85
2022/05/08 07:07:38;;;;;;;6.60;5.38;;;;;;;16.97;51.80;93900.19;5049379;28;20400;-85
2022/05/08 07:10:04;;;;;;;5.05;4.55;;;;;;;16.98;51.77;93905.16;5031775;28;20033;-85
2022/05/08 07:12:29;;;;;;;5.18;4.47;;;;;;;16.97;51.55;93900.94;5015283;28;20041;-86
2022/05/08 07:14:55;;;;;;;5.60;4.70;;;;;;;16.97;52.25;93913.84;5013147;28;20037;-85
2022/05/08 07:17:21;;;;;;;5.57;4.47;;;;;;;16.97;51.67;93909.13;5012075;28;20038;-85
2022/05/08 07:19:47;;;;;;;4.82;4.32;;;;;;;16.97;51.98;93920.06;4996415;28;20037;-85
2022/05/08 07:22:15;;;;;;;5.07;4.57;;;;;;;16.97;51.80;93919.31;4992104;28;20034;-85
2022/05/08 07:24:40;;;;;;;5.68;4.85;;;;;;;16.97;52.13;93922.78;4997768;28;20580;-89
2022/05/08 07:27:06;;;;;;;5.68;5.05;;;;;;;16.97;52.03;93919.31;5011830;28;20046;-85
2022/05/08 07:29:31;;;;;;;5.15;4.65;;;;;;;16.97;51.80;93908.38;4996023;28;20041;-87
2022/05/08 07:31:58;;;;;;;5.43;4.93;;;;;;;16.96;52.13;93917.81;4995241;28;20374;-85
2022/05/08 07:37:08;;;;;;;5.18;4.68;;;;;;;16.99;51.94;93917.59;5028696;28;20052;-85
2022/05/08 07:39:33;;;;;;;5.25;4.75;;;;;;;16.98;52.06;93918.06;5030198;28;20041;-85
2022/05/08 07:41:59;;;;;;;6.07;4.80;;;;;;;16.97;52.09;93924.75;5011810;28;20037;-86
2022/05/08 07:44:25;;;;;;;5.57;4.75;;;;;;;16.98;52.08;93920.81;5011433;28;20095;-85
2022/05/08 07:46:51;;;;;;;6.07;5.35;;;;;;;16.97;52.13;93924.75;5029209;28;20033;-86
2022/05/08 07:49:16;;;;;;;5.78;4.90;;;;;;;16.97;52.26;93922.03;5020498;28;20124;-86
2022/05/08 07:51:42;;;;;;;5.22;4.72;;;;;;;16.99;52.04;93922.28;5032490;28;20033;-85
2022/05/08 07:54:07;;;;;;;5.15;4.63;;;;;;;16.99;52.04;93928.50;5030413;28;20036;-85
2022/05/08 07:56:34;;;;;;;4.85;4.35;;;;;;;16.99;52.03;93928.50;5048713;28;20040;-85
2022/05/08 07:59:00;;;;;;;5.70;5.10;;;;;;;16.98;51.85;93929.75;5032118;28;20029;-85
2022/05/08 08:01:25;;;;;;;5.82;5.15;;;;;;;16.98;51.76;93937.94;5030285;28;20170;-85
2022/05/08 08:03:50;;;;;;;5.63;5.00;;;;;;;16.99;51.99;93936.69;5031447;28;20037;-85
2022/05/08 08:06:16;;;;;;;5.00;4.50;;;;;;;16.98;52.09;93942.66;5031314;28;20226;-86
2022/05/08 08:08:41;;;;;;;5.38;4.72;;;;;;;16.99;51.75;93941.41;5031884;28;20381;-85
2022/05/08 08:11:07;;;;;;;6.45;5.30;;;;;;;16.98;51.84;93937.94;5025386;28;20400;-85
2022/05/08 08:13:33;;;;;;;5.57;4.75;;;;;;;17.00;51.96;93940.19;4995367;28;20049;-85
2022/05/08 08:15:59;;;;;;;5.72;4.80;;;;;;;16.99;52.10;93946.88;5012178;28;20041;-86
2022/05/08 08:18:25;;;;;;;6.03;5.28;;;;;;;17.00;52.02;93945.66;5011374;28;20037;-85
2022/05/08 08:20:50;;;;;;;6.45;4.90;;;;;;;17.01;51.88;93955.34;5011127;28;20535;-85
2022/05/08 08:23:16;;;;;;;5.65;4.80;;;;;;;16.97;51.80;93952.81;5027317;28;20447;-85
2022/05/08 08:25:41;;;;;;;5.53;4.57;;;;;;;17.00;51.97;93956.56;5011751;28;20033;-86
2022/05/08 08:28:07;;;;;;;5.10;4.57;;;;;;;17.00;51.68;93956.56;4994509;28;20034;-85
2022/05/08 08:30:32;;;;;;;5.38;4.65;;;;;;;17.02;51.93;93970.50;5011735;28;20037;-85
2022/05/08 08:32:58;;;;;;;6.07;4.88;;;;;;;17.00;51.46;93957.31;5011010;28;20029;-86
2022/05/08 08:35:23;;;;;;;5.53;4.70;;;;;;;17.00;52.07;93965.50;4994501;28;20025;-86
2022/05/08 08:37:49;;;;;;;6.10;5.13;;;;;;;17.00;51.83;93964.75;5013751;28;20033;-85
2022/05/08 08:40:14;;;;;;;5.10;4.60;;;;;;;17.01;51.66;93964.28;5014449;28;20040;-89
2022/05/08 08:42:40;;;;;;;5.32;4.82;;;;;;;17.00;51.55;93968.25;5014217;28;20476;-85
2022/05/08 08:47:52;;;;;;;4.90;4.40;;;;;;;17.01;52.07;93971.72;5033823;28;20174;-86
2022/05/08 08:50:18;;;;;;;5.63;5.05;;;;;;;17.01;51.95;93960.78;5016560;28;20037;-85
2022/05/08 08:52:45;;;;;;;6.38;4.88;;;;;;;17.01;52.02;93966.25;5010643;28;20041;-85
2022/05/08 08:55:10;;;;;;;5.45;4.13;;;;;;;17.01;51.74;93958.81;4993999;28;20049;-86
2022/05/08 08:57:36;;;;;;;5.15;4.65;;;;;;;17.00;51.90;93970.97;5011152;28;20041;-85
2022/05/08 09:00:02;;;;;;;5.47;4.85;;;;;;;17.02;52.08;93962.28;5011290;28;20493;-85
2022/05/08 09:02:28;;;;;;;5.50;4.75;;;;;;;17.01;51.77;93972.47;5008396;28;20483;-86
2022/05/08 09:04:54;;;;;;;5.97;5.25;;;;;;;17.01;51.75;93977.19;5030288;28;20083;-85
2022/05/08 09:07:34;;;;;;;5.28;4.78;;;;;;;17.00;51.74;93960.03;5030942;28;20037;-85
2022/05/08 09:10:06;;;;;;;6.20;5.00;;;;;;;17.04;52.15;93978.94;5047091;28;20036;-85
2022/05/08 09:12:31;;;;;;;5.47;4.93;;;;;;;17.03;51.74;93972.72;5045364;28;20033;-85
2022/05/08 09:14:57;;;;;;;5.40;4.80;;;;;;;17.01;51.93;93975.19;5011558;28;20056;-85
2022/05/08 09:17:25;;;;;;;5.57;4.97;;;;;;;17.01;51.96;93983.41;5013288;28;20095;-85
2022/05/08 09:19:50;;;;;;;6.15;4.93;;;;;;;17.03;51.50;93975.47;5030936;28;20033;-85
2022/05/08 09:22:17;;;;;;;5.82;4.78;;;;;;;17.02;51.67;93973.22;5016488;28;20515;-85
2022/05/08 09:24:50;;;;;;;5.72;5.00;;;;;;;17.03;51.39;93978.19;4994073;28;20043;-85
2022/05/08 09:27:17;;;;;;;5.88;4.95;;;;;;;17.04;51.79;93979.69;5026123;28;20108;-85
2022/05/08 09:29:42;;;;;;;5.43;4.72;;;;;;;17.03;51.72;93980.94;5010704;28;20029;-85
2022/05/08 09:32:08;;;;;;;5.70;4.88;;;;;;;17.03;51.79;93982.91;5025845;28;20040;-85
2022/05/08 09:34:57;;;;;;;6.03;5.25;;;;;;;17.03;52.01;93975.47;5010412;28;20034;-86
2022/05/08 09:37:23;;;;;;;5.90;5.28;;;;;;;17.03;52.21;93991.84;5021575;28;20413;-85
2022/05/08 09:39:48;;;;;;;6.90;5.50;;;;;;;17.04;51.94;93971.50;5009866;28;20030;-86
2022/05/08 09:42:43;;;;;;;6.82;5.40;;;;;;;17.04;51.86;93979.69;5025996;28;20049;-85
2022/05/08 09:45:09;;;;;;;6.30;5.45;;;;;;;17.03;51.82;93978.19;4949142;28;20047;-85
2022/05/08 09:47:45;;;;;;;5.78;5.13;;;;;;;17.04;51.57;93978.94;4950597;28;20035;-85
2022/05/08 09:50:11;;;;;;;5.28;4.78;;;;;;;17.04;51.67;93974.22;4956227;28;20517;-85
2022/05/08 09:52:38;;;;;;;5.35;4.57;;;;;;;17.04;51.91;93974.22;4933790;28;20039;-85
2022/05/08 09:55:04;;;;;;;6.03;4.80;;;;;;;17.04;51.67;93979.69;4949848;28;20093;-85
2022/05/08 09:57:29;;;;;;;5.60;5.10;;;;;;;17.05;51.85;93981.19;4966937;28;20464;-85
2022/05/08 09:59:55;;;;;;;5.38;4.57;;;;;;;17.05;51.63;93981.19;4934101;28;20105;-86
2022/05/08 10:02:20;;;;;;;6.70;4.75;;;;;;;17.06;51.73;93985.41;4933319;28;20394;-85
2022/05/08 10:04:46;;;;;;;5.57;5.05;;;;;;;17.06;51.79;93979.94;4950491;28;20538;-86
2022/05/08 10:07:12;;;;;;;6.30;4.90;;;;;;;17.06;51.56;93971.75;4949642;28;20074;-85
2022/05/08 10:15:30;;;;;;;5.00;4.50;;;;;;;17.05;52.01;93970.25;4967998;28;20085;-87
2022/05/08 10:18:21;;;;;;;5.90;5.15;;;;;;;17.06;51.51;93976.47;4972951;28;20035;-87
2022/05/08 10:20:59;;;;;;;5.40;4.72;;;;;;;17.05;51.79;93980.44;4982576;28;20040;-85
2022/05/08 10:23:41;;;;;;;5.88;5.28;;;;;;;17.06;51.92;93979.22;5029192;28;20507;-85
2022/05/08 10:26:19;;;;;;;6.10;4.90;;;;;;;17.06;51.76;93973.75;5020829;28;20526;-85
2022/05/08 10:29:03;;;;;;;5.70;4.93;;;;;;;17.05;51.98;93975.72;5033725;28;20033;-86
2022/05/08 10:31:44;;;;;;;6.97;5.25;;;;;;;17.06;51.92;93971.00;5050993;28;20041;-85
2022/05/08 10:34:11;;;;;;;6.03;4.78;;;;;;;17.05;51.91;93973.00;5049361;28;20148;-86
2022/05/08 10:36:37;;;;;;;6.43;4.63;;;;;;;17.04;52.05;93976.97;5023156;28;20030;-85
2022/05/08 10:39:38;;;;;;;5.78;5.13;;;;;;;17.07;51.65;93977.97;5012745;28;20048;-85
2022/05/08 10:42:04;;;;;;;5.82;5.18;;;;;;;17.07;51.48;93972.50;5029366;28;20046;-86
2022/05/08 10:44:37;;;;;;;6.00;4.80;;;;;;;17.07;51.65;93983.44;5013610;28;20041;-85
2022/05/08 10:47:33;;;;;;;5.22;4.70;;;;;;;17.08;51.67;93980.22;5013209;28;20045;-87
2022/05/08 10:50:05;;;;;;;5.30;4.80;;;;;;;17.08;51.76;93979.47;5034602;28;20041;-86
2022/05/08 10:52:31;;;;;;;5.68;4.70;;;;;;;17.08;51.71;93982.19;5049202;28;20549;-85
2022/05/08 10:55:04;;;;;;;5.45;4.88;;;;;;;17.08;51.85;93972.03;5015707;28;20033;-86
2022/05/08 10:57:30;;;;;;;4.43;4.03;;;;;;;17.08;51.78;93976.72;5016249;28;20033;-86
2022/05/08 10:59:56;;;;;;;5.30;4.50;;;;;;;17.09;52.10;93976.25;5033032;28;20040;-89
2022/05/08 11:02:51;;;;;;;6.28;5.03;;;;;;;17.10;51.66;93985.19;5031066;28;20488;-86
2022/05/08 11:05:20;;;;;;;6.75;5.28;;;;;;;17.10;52.02;93977.00;5017265;28;20156;-85
2022/05/08 11:08:08;;;;;;;5.80;4.85;;;;;;;17.11;51.63;93973.75;5033156;28;20436;-85
2022/05/08 11:10:38;;;;;;;5.35;4.72;;;;;;;17.11;51.80;93975.72;5034777;28;20041;-85
2022/05/08 11:13:11;;;;;;;5.25;4.75;;;;;;;17.12;51.58;93977.97;5032589;28;20045;-85
2022/05/08 11:15:42;;;;;;;5.05;4.55;;;;;;;17.10;51.82;93980.44;5014962;28;20048;-86
2022/05/08 11:18:15;;;;;;;4.72;4.15;;;;;;;17.12;51.66;93979.97;5028526;28;20042;-86
2022/05/08 11:21:02;;;;;;;5.72;4.63;;;;;;;17.11;51.88;93978.47;5013257;28;20095;-85
2022/05/08 11:23:30;;;;;;;5.10;4.60;;;;;;;17.14;51.71;93982.97;5009085;28;20040;-86
2022/05/08 11:25:58;;;;;;;5.82;4.53;;;;;;;17.11;52.07;93973.75;5012284;28;20659;-86
2022/05/08 11:28:24;;;;;;;4.85;4.20;;;;;;;17.13;51.93;93979.47;4995255;28;20033;-85
2022/05/08 11:30:50;;;;;;;5.57;4.40;;;;;;;17.13;51.77;93990.41;5012400;28;20507;-85
2022/05/08 11:36:04;;;;;;;4.80;4.30;;;;;;;17.15;51.71;93973.53;5015376;28;20045;-85
2022/05/08 11:38:42;;;;;;;5.00;4.50;;;;;;;17.13;51.61;93970.53;5041833;28;20484;-85
2022/05/08 11:41:09;;;;;;;4.85;4.45;;;;;;;17.14;51.46;93982.97;5011420;28;20119;-85
2022/05/08 11:43:44;;;;;;;4.90;4.00;;;;;;;17.15;51.64;93981.72;5013023;28;20077;-85
2022/05/08 11:46:17;;;;;;;4.35;3.95;;;;;;;17.17;51.52;93967.56;5011539;28;20121;-85
2022/05/08 11:48:43;;;;;;;5.63;4.97;;;;;;;17.16;51.52;93979.75;5013454;28;20171;-85
2022/05/08 11:51:09;;;;;;;5.28;4.40;;;;;;;17.18;51.59;93969.06;5011010;28;20378;-85
2022/05/08 11:53:49;;;;;;;5.25;4.50;;;;;;;17.17;51.53;93968.31;5029336;28;20099;-85
2022/05/08 11:56:28;;;;;;;5.95;4.38;;;;;;;17.18;51.23;93969.81;4996667;28;20042;-85
2022/05/08 11:58:56;;;;;;;4.85;4.25;;;;;;;17.18;51.62;93967.09;5012307;28;20041;-85
2022/05/08 12:01:31;;;;;;;4.78;4.05;;;;;;;17.20;51.18;93966.59;5011708;28;20045;-85